Terminal Aerodrome Forecast
Issued by NWS

Home | Current Version | Previous Version | Text Only | Print | Product List | Glossary On
Versions: 1 2 3 4 5 6 7 8 9 10 11 12 13 14 15 16 17 18
000
FTUS46 KLOX 221123
TAFOXR
TAF
KOXR 221123Z 2212/2312 04006KT P6SM BKN150
     FM222000 29012KT P6SM SCT250
     FM230200 29006KT P6SM SCT250
     FM230600 06006KT P6SM SKC=

USA.gov is the U.S. government's official web portal to all federal, state and local government web resources and services.